Time;durP1;ratioP1;P1;durP2;ratioP2;P2;SDS_P1;SDS_P2;PMS_P1;PMS_P2;Temp;Humidity;BMP_temperature;BMP_pressure;BME280_temperature;BME280_humidity;BME280_pressure;Samples;Min_cycle;Max_cycle;Signal;HPM_P1;HPM_P2
2022/03/22 00:01:32;;;;;;;15.77;6.13;;;;;;;38.90;45.13;100829.47;4751453;30;20457;-72
2022/03/22 00:04:02;;;;;;;29.47;8.60;;;;;;;38.68;45.60;100819.50;4781302;29;20455;-71
2022/03/22 00:06:31;;;;;;;18.70;6.23;;;;;;;38.93;45.21;100806.38;4781453;29;20956;-71
2022/03/22 00:08:57;;;;;;;21.87;10.87;;;;;;;38.58;45.67;100797.28;4766456;30;20877;-71
2022/03/22 00:11:23;;;;;;;23.17;9.40;;;;;;;38.59;45.84;100798.88;4751464;30;20998;-71
2022/03/22 00:13:49;;;;;;;21.00;7.73;;;;;;;38.53;45.79;100781.94;4751557;30;20309;-71
2022/03/22 00:16:15;;;;;;;22.00;8.97;;;;;;;38.17;46.64;100782.03;4752621;30;20929;-72
2022/03/22 00:18:42;;;;;;;25.60;8.60;;;;;;;38.42;46.28;100781.41;4780557;29;20932;-72
2022/03/22 00:21:07;;;;;;;22.90;9.20;;;;;;;38.35;46.57;100782.97;4752669;30;20405;-71
2022/03/22 00:23:34;;;;;;;19.10;9.10;;;;;;;38.56;45.53;100778.63;4752513;30;20531;-71
2022/03/22 00:26:01;;;;;;;20.70;10.70;;;;;;;38.16;46.43;100781.22;4751354;30;20425;-71
2022/03/22 00:28:27;;;;;;;18.33;9.40;;;;;;;38.52;45.47;100788.47;4751279;30;20453;-72
2022/03/22 00:30:53;;;;;;;25.93;8.57;;;;;;;38.68;45.29;100786.97;4780833;29;20456;-71
2022/03/22 00:33:19;;;;;;;33.50;7.80;;;;;;;38.55;45.81;100785.16;4752453;30;20438;-72
2022/03/22 00:35:45;;;;;;;27.13;11.23;;;;;;;38.44;46.23;100787.31;4780620;29;20483;-72
2022/03/22 00:38:14;;;;;;;32.63;8.03;;;;;;;38.55;45.96;100790.56;4765880;30;20182;-71
2022/03/22 00:40:40;;;;;;;24.33;9.00;;;;;;;38.52;45.99;100785.75;4752261;30;20414;-72
2022/03/22 00:43:07;;;;;;;30.87;8.90;;;;;;;38.27;46.70;100786.44;4780686;29;20461;-72
2022/03/22 00:45:33;;;;;;;23.60;8.53;;;;;;;38.47;46.08;100798.66;4750995;30;20814;-70
2022/03/22 00:48:01;;;;;;;23.50;8.33;;;;;;;38.33;46.40;100801.44;4780512;29;20453;-70
2022/03/22 00:50:30;;;;;;;17.70;7.17;;;;;;;38.17;46.29;100785.53;4752184;30;20401;-70
2022/03/22 00:52:57;;;;;;;29.93;9.87;;;;;;;38.25;46.31;100777.78;4750797;30;20425;-71
2022/03/22 00:55:24;;;;;;;18.87;7.97;;;;;;;38.39;46.19;100779.31;4765662;30;20941;-71
2022/03/22 00:57:51;;;;;;;17.43;8.20;;;;;;;38.28;46.18;100786.13;4780398;30;20425;-71
2022/03/22 01:00:19;;;;;;;29.67;11.03;;;;;;;38.10;46.74;100785.19;4765386;30;20543;-71
2022/03/22 01:02:50;;;;;;;20.47;7.80;;;;;;;38.19;46.63;100777.13;4750449;30;20879;-71
2022/03/22 01:05:19;;;;;;;25.33;9.40;;;;;;;38.24;46.31;100781.59;4750619;30;20421;-69
2022/03/22 01:07:50;;;;;;;18.90;8.33;;;;;;;38.22;46.78;100787.31;4780452;29;20428;-72
2022/03/22 01:10:18;;;;;;;22.60;7.10;;;;;;;38.10;46.44;100789.78;4750517;30;20797;-70
2022/03/22 01:12:45;;;;;;;15.63;6.43;;;;;;;38.47;45.91;100793.22;4780078;29;20941;-71
2022/03/22 01:15:17;;;;;;;16.80;7.57;;;;;;;38.54;45.57;100790.88;4751853;30;20921;-72
2022/03/22 01:17:44;;;;;;;26.03;7.60;;;;;;;38.56;45.75;100791.38;4780323;29;20459;-72
2022/03/22 01:20:11;;;;;;;18.20;8.17;;;;;;;38.53;45.68;100790.06;4750497;30;20840;-70
2022/03/22 01:22:42;;;;;;;22.80;8.50;;;;;;;38.42;45.75;100802.28;4750362;30;20500;-70
2022/03/22 01:25:20;;;;;;;27.83;9.10;;;;;;;37.97;46.38;100806.91;4751726;30;20788;-70
2022/03/22 01:27:47;;;;;;;16.23;7.37;;;;;;;38.20;46.57;100813.13;4751611;30;20470;-70
2022/03/22 01:30:15;;;;;;;17.53;6.73;;;;;;;38.54;45.79;100813.34;4750096;30;20962;-70
2022/03/22 01:32:42;;;;;;;19.27;6.93;;;;;;;38.73;45.16;100815.06;4750270;30;20808;-70
2022/03/22 01:35:09;;;;;;;18.10;7.67;;;;;;;38.88;45.07;100812.72;4779977;29;20482;-72
2022/03/22 01:37:36;;;;;;;20.90;6.97;;;;;;;38.77;45.15;100816.03;4780043;29;20429;-72
2022/03/22 01:40:03;;;;;;;16.63;6.53;;;;;;;38.59;45.45;100804.28;4750032;30;20449;-72
2022/03/22 01:42:29;;;;;;;16.43;8.10;;;;;;;38.76;45.29;100795.47;4779898;29;20476;-72
2022/03/22 01:44:55;;;;;;;22.70;7.80;;;;;;;38.79;45.04;100779.34;4779762;29;20428;-71
2022/03/22 01:47:24;;;;;;;26.47;9.30;;;;;;;38.66;45.19;100777.53;4749993;30;20183;-71
2022/03/22 01:49:52;;;;;;;22.40;11.97;;;;;;;38.56;45.33;100783.25;4750596;30;20809;-72
2022/03/22 01:52:23;;;;;;;25.00;7.30;;;;;;;38.29;46.34;100778.78;4750419;30;20436;-70
2022/03/22 01:54:51;;;;;;;39.93;8.57;;;;;;;38.09;46.93;100785.50;4779713;29;20830;-70
2022/03/22 01:57:21;;;;;;;13.17;6.90;;;;;;;38.18;46.37;100776.31;4751294;30;20401;-70
2022/03/22 01:59:47;;;;;;;24.37;6.67;;;;;;;38.42;45.83;100770.56;4750084;30;20861;-72
2022/03/22 02:07:45;;;;;;;28.47;7.70;;;;;;;38.12;46.95;100769.44;4751546;30;20431;-72
2022/03/22 02:10:12;;;;;;;22.47;8.67;;;;;;;37.94;47.18;100772.31;4779706;29;20854;-72
2022/03/22 02:12:39;;;;;;;26.00;9.57;;;;;;;37.76;47.20;100763.25;4779793;29;20421;-70
2022/03/22 02:15:06;;;;;;;22.83;8.20;;;;;;;38.07;46.88;100766.84;4764606;30;20511;-69
2022/03/22 02:17:31;;;;;;;26.37;7.43;;;;;;;37.99;46.93;100770.28;4751123;30;20508;-72
2022/03/22 02:19:59;;;;;;;23.27;7.20;;;;;;;38.17;46.66;100763.88;4779742;30;20548;-70
2022/03/22 02:22:45;;;;;;;21.63;8.07;;;;;;;38.25;46.33;100767.75;4751031;29;20475;-70
2022/03/22 02:25:15;;;;;;;20.00;8.27;;;;;;;38.40;46.12;100767.38;4764125;30;20959;-70
2022/03/22 02:27:45;;;;;;;35.17;10.13;;;;;;;38.43;46.07;100780.31;4779721;29;20456;-71
2022/03/22 02:30:13;;;;;;;27.90;9.67;;;;;;;38.17;46.76;100773.91;4764578;30;20432;-72
2022/03/22 02:32:40;;;;;;;19.80;8.50;;;;;;;38.42;46.14;100786.81;4779343;29;20514;-72
2022/03/22 02:35:07;;;;;;;21.90;10.87;;;;;;;38.77;45.32;100781.59;4749790;30;20427;-70
2022/03/22 02:37:33;;;;;;;31.60;12.00;;;;;;;38.81;44.89;100779.84;4764616;30;20437;-70
2022/03/22 02:39:59;;;;;;;37.83;10.93;;;;;;;38.95;44.77;100772.38;4750800;30;20449;-69
2022/03/22 02:42:25;;;;;;;16.73;8.47;;;;;;;38.44;45.45;100772.97;4782490;29;20598;-72
2022/03/22 02:44:51;;;;;;;24.33;7.90;;;;;;;38.49;45.28;100775.56;4782642;29;20437;-71
2022/03/22 02:47:17;;;;;;;25.47;9.47;;;;;;;38.57;45.13;100776.69;4782629;29;20854;-70
2022/03/22 02:49:43;;;;;;;26.37;9.80;;;;;;;38.38;45.31;100769.59;4782741;29;20420;-70
2022/03/22 02:52:09;;;;;;;19.80;7.33;;;;;;;38.27;45.96;100757.44;4754204;30;20251;-69
2022/03/22 02:54:34;;;;;;;22.23;6.67;;;;;;;38.12;46.58;100750.47;4782915;30;20315;-70
2022/03/22 02:57:01;;;;;;;27.80;8.43;;;;;;;38.27;46.03;100752.00;4782497;29;20191;-70
2022/03/22 02:59:27;;;;;;;21.37;6.27;;;;;;;38.25;45.57;100754.22;4782679;29;20666;-72
2022/03/22 03:01:53;;;;;;;19.13;7.00;;;;;;;38.11;45.72;100759.69;4752727;30;20488;-71
2022/03/22 03:04:19;;;;;;;17.97;8.43;;;;;;;38.38;45.09;100758.75;4782508;29;20190;-70
2022/03/22 03:06:45;;;;;;;13.00;6.40;;;;;;;38.22;45.70;100770.28;4767506;30;20501;-71
2022/03/22 03:09:11;;;;;;;17.90;10.53;;;;;;;38.10;46.27;100766.22;4753874;30;20164;-69
2022/03/22 03:11:37;;;;;;;25.43;8.03;;;;;;;37.85;46.38;100753.31;4752523;30;20515;-69
2022/03/22 03:16:48;;;;;;;21.83;9.27;;;;;;;38.67;44.58;100766.38;4753861;30;20224;-70
2022/03/22 03:19:14;;;;;;;35.73;9.73;;;;;;;38.68;44.93;100776.13;4782352;30;20496;-70
2022/03/22 03:21:39;;;;;;;27.57;9.13;;;;;;;38.64;44.76;100772.41;4782046;29;20432;-72
2022/03/22 03:24:05;;;;;;;20.37;9.87;;;;;;;38.52;45.12;100771.41;4782171;29;20429;-72
2022/03/22 03:26:31;;;;;;;20.43;7.27;;;;;;;38.06;45.81;100772.56;4767199;30;20195;-70
2022/03/22 03:28:57;;;;;;;18.97;7.90;;;;;;;37.90;46.39;100774.84;4781936;30;20850;-70
2022/03/22 03:31:23;;;;;;;9.20;5.00;;;;;;;37.73;47.08;100783.59;4782061;30;20163;-70
2022/03/22 03:33:49;;;;;;;25.00;7.50;;;;;;;37.88;46.73;100779.78;4781698;30;20818;-71
2022/03/22 03:36:16;;;;;;;18.90;6.80;;;;;;;37.78;46.93;100777.28;4781878;30;20457;-71
2022/03/22 03:38:42;;;;;;;16.10;7.83;;;;;;;37.78;46.85;100788.13;4781978;29;20519;-72
2022/03/22 03:43:54;;;;;;;13.97;6.57;;;;;;;37.76;46.80;100801.16;4753274;30;20459;-69
2022/03/22 03:49:06;;;;;;;21.43;8.77;;;;;;;38.18;46.23;100808.84;4753135;30;20512;-71
2022/03/22 03:51:36;;;;;;;14.67;5.93;;;;;;;38.41;45.76;100806.91;4781416;29;20455;-69
2022/03/22 03:54:02;;;;;;;15.30;7.30;;;;;;;38.31;45.71;100809.09;4781598;29;20424;-69
2022/03/22 03:56:29;;;;;;;17.00;7.27;;;;;;;38.33;45.70;100798.75;4753198;30;20413;-69
2022/03/22 03:58:57;;;;;;;14.93;7.07;;;;;;;38.10;46.38;100782.47;4753209;30;20413;-70
2022/03/22 04:01:25;;;;;;;14.83;8.63;;;;;;;38.16;46.68;100781.22;4781526;29;20445;-72
2022/03/22 04:03:51;;;;;;;26.90;9.10;;;;;;;38.13;46.48;100802.75;4781146;29;20546;-70
2022/03/22 04:06:17;;;;;;;16.53;6.90;;;;;;;38.36;46.22;100814.38;4753423;30;20416;-70
2022/03/22 04:08:43;;;;;;;30.70;10.50;;;;;;;38.46;45.99;100818.72;4781504;29;20425;-70
2022/03/22 04:11:09;;;;;;;24.50;8.60;;;;;;;38.51;46.04;100826.72;4751700;30;20434;-72
2022/03/22 04:13:35;;;;;;;20.07;10.30;;;;;;;38.68;45.52;100829.53;4781341;29;20417;-72
2022/03/22 04:16:01;;;;;;;15.53;8.47;;;;;;;38.51;46.04;100835.66;4750928;30;20649;-72
2022/03/22 04:18:27;;;;;;;20.17;8.40;;;;;;;38.23;46.37;100828.75;4752699;30;20417;-72
2022/03/22 04:20:53;;;;;;;11.80;7.47;;;;;;;38.01;47.28;100829.56;4781301;30;20548;-70
2022/03/22 04:23:19;;;;;;;11.47;6.80;;;;;;;38.33;46.55;100831.25;4781111;29;20207;-71
2022/03/22 04:25:45;;;;;;;21.27;7.67;;;;;;;38.27;46.77;100824.38;4752642;30;20413;-69
2022/03/22 04:33:39;;;;;;;15.27;9.97;;;;;;;38.33;46.70;100825.84;4752406;30;20452;-71
2022/03/22 04:36:05;;;;;;;11.70;7.57;;;;;;;38.19;46.74;100834.00;4780875;29;20425;-69
2022/03/22 04:38:34;;;;;;;16.23;6.80;;;;;;;38.30;46.57;100821.03;4780951;29;20233;-70
2022/03/22 04:41:00;;;;;;;12.90;7.93;;;;;;;38.41;46.57;100819.66;4765402;30;20223;-71
2022/03/22 04:43:26;;;;;;;18.13;9.30;;;;;;;38.59;46.07;100818.63;4780765;29;20515;-70
2022/03/22 04:45:52;;;;;;;13.97;8.70;;;;;;;38.53;46.21;100829.94;4752365;29;20417;-70
2022/03/22 04:48:17;;;;;;;25.83;9.50;;;;;;;38.64;45.99;100826.63;4765676;30;20687;-72
2022/03/22 04:50:43;;;;;;;19.57;7.93;;;;;;;38.78;45.58;100823.06;4780753;29;20194;-72
2022/03/22 04:58:38;;;;;;;20.53;10.73;;;;;;;38.61;46.01;100777.66;4752004;30;20529;-70
2022/03/22 05:01:04;;;;;;;24.57;9.30;;;;;;;38.60;45.83;100782.28;4750809;30;20457;-72
2022/03/22 05:03:30;;;;;;;20.23;9.20;;;;;;;38.75;45.10;100791.97;4779546;29;20493;-72
2022/03/22 05:08:41;;;;;;;29.33;10.43;;;;;;;38.90;45.09;100799.66;4751797;30;20533;-72
2022/03/22 05:11:07;;;;;;;31.37;10.77;;;;;;;38.82;45.20;100789.59;4751937;30;20508;-70
2022/03/22 05:13:33;;;;;;;37.47;16.27;;;;;;;38.60;45.70;100784.19;4765273;30;20213;-70
2022/03/22 05:15:59;;;;;;;22.30;13.50;;;;;;;38.52;46.01;100799.31;4751797;30;20413;-71
2022/03/22 05:18:26;;;;;;;27.33;14.70;;;;;;;38.55;46.02;100800.59;4751825;30;20780;-71
2022/03/22 05:20:52;;;;;;;21.40;13.17;;;;;;;38.52;45.66;100812.06;4750600;30;20278;-70
2022/03/22 05:23:18;;;;;;;16.60;9.60;;;;;;;38.57;45.53;100820.06;4750709;30;20551;-70
2022/03/22 05:25:44;;;;;;;24.13;11.87;;;;;;;38.24;46.19;100824.94;4751727;30;20782;-72
2022/03/22 05:28:11;;;;;;;27.30;11.97;;;;;;;38.07;47.33;100837.28;4780213;29;20433;-71
2022/03/22 05:30:37;;;;;;;32.97;11.33;;;;;;;38.32;46.42;100844.00;4780238;29;20425;-72
2022/03/22 05:33:03;;;;;;;31.57;11.53;;;;;;;38.33;46.47;100853.72;4750327;30;20427;-70
2022/03/22 05:35:29;;;;;;;23.67;14.30;;;;;;;38.50;46.07;100853.03;4779897;29;20191;-69
2022/03/22 05:37:55;;;;;;;24.40;13.97;;;;;;;38.55;46.00;100852.91;4764498;30;20449;-70
2022/03/22 05:40:21;;;;;;;20.50;14.33;;;;;;;38.65;45.83;100847.22;4751469;30;20484;-71
2022/03/22 05:42:47;;;;;;;17.77;14.20;;;;;;;38.12;46.24;100837.16;4751409;30;20253;-70
2022/03/22 05:45:13;;;;;;;30.80;20.30;;;;;;;38.10;46.81;100846.69;4751503;30;20508;-71
2022/03/22 05:47:40;;;;;;;23.03;16.27;;;;;;;37.88;47.33;100851.00;4751527;30;20501;-76
2022/03/22 05:50:07;;;;;;;26.37;15.37;;;;;;;38.14;47.21;100843.06;4750065;30;20694;-74
2022/03/22 05:52:33;;;;;;;26.37;20.50;;;;;;;38.10;46.41;100838.56;4750250;30;20425;-74
2022/03/22 05:54:59;;;;;;;40.13;24.10;;;;;;;38.09;46.92;100840.47;4750052;30;20499;-75
2022/03/22 05:57:25;;;;;;;35.53;23.00;;;;;;;37.77;47.67;100837.94;4750101;30;20436;-74
2022/03/22 05:59:51;;;;;;;28.60;16.47;;;;;;;37.75;47.33;100838.25;4750412;30;20667;-70
2022/03/22 06:02:16;;;;;;;23.00;12.80;;;;;;;37.75;47.40;100838.25;4750869;30;20310;-69
2022/03/22 06:04:42;;;;;;;26.37;14.70;;;;;;;38.07;46.25;100839.97;4750214;30;20651;-70
2022/03/22 06:07:08;;;;;;;22.57;10.43;;;;;;;38.11;46.37;100846.38;4751959;30;20817;-71
2022/03/22 06:09:34;;;;;;;29.57;12.37;;;;;;;38.03;46.44;100849.81;4748899;30;20429;-70
2022/03/22 06:12:00;;;;;;;30.30;14.77;;;;;;;37.96;46.34;100857.56;4743115;30;20230;-71
2022/03/22 06:14:26;;;;;;;40.77;16.10;;;;;;;38.03;46.52;100870.69;4773659;30;20923;-71
2022/03/22 06:16:52;;;;;;;20.47;13.87;;;;;;;38.29;45.88;100869.00;4782888;29;20186;-69
2022/03/22 06:19:18;;;;;;;28.17;14.13;;;;;;;38.42;45.53;100861.91;4754326;30;20515;-70
2022/03/22 06:21:44;;;;;;;33.07;16.37;;;;;;;38.47;45.55;100864.50;4783128;30;20193;-70
2022/03/22 06:24:10;;;;;;;24.37;14.47;;;;;;;38.31;45.80;100866.78;4778503;29;20193;-70
2022/03/22 06:26:36;;;;;;;27.23;14.50;;;;;;;38.36;45.56;100880.19;4776112;29;20424;-68
2022/03/22 06:29:02;;;;;;;26.70;15.43;;;;;;;38.23;45.58;100881.03;4769083;30;20220;-68
2022/03/22 06:31:33;;;;;;;27.40;16.00;;;;;;;38.34;45.55;100892.47;4755658;30;20429;-69
2022/03/22 06:34:01;;;;;;;31.63;16.87;;;;;;;38.41;45.40;100890.13;4767453;30;20451;-70
2022/03/22 06:36:30;;;;;;;29.00;16.70;;;;;;;38.70;45.07;100890.47;4753335;30;20425;-71
2022/03/22 06:38:56;;;;;;;41.93;17.77;;;;;;;38.86;44.41;100885.47;4783045;29;20638;-71
2022/03/22 06:41:22;;;;;;;33.73;17.70;;;;;;;38.61;44.84;100886.91;4782838;29;20449;-68
2022/03/22 06:43:48;;;;;;;36.97;19.03;;;;;;;38.45;45.28;100893.81;4783002;29;20906;-68
2022/03/22 06:46:14;;;;;;;38.53;21.37;;;;;;;38.50;45.21;100893.69;4781861;29;20432;-68
2022/03/22 06:48:40;;;;;;;35.57;16.50;;;;;;;38.57;45.05;100902.19;4764939;30;20429;-69
2022/03/22 06:51:05;;;;;;;34.43;17.17;;;;;;;38.65;44.72;100911.47;4774208;30;20514;-71
2022/03/22 06:53:31;;;;;;;42.57;16.83;;;;;;;38.75;44.48;100926.72;4773710;29;20562;-69
2022/03/22 06:55:58;;;;;;;25.30;12.83;;;;;;;38.79;44.35;100930.41;4760470;30;20821;-71
2022/03/22 06:58:25;;;;;;;31.80;17.80;;;;;;;38.47;44.82;100939.56;4759016;30;20183;-70
2022/03/22 07:00:55;;;;;;;35.43;15.93;;;;;;;38.37;44.93;100927.09;4773904;29;20427;-70
2022/03/22 07:03:21;;;;;;;27.70;16.67;;;;;;;38.30;45.43;100923.97;4756768;30;20472;-69
2022/03/22 07:05:47;;;;;;;32.57;16.03;;;;;;;38.45;45.15;100934.47;4760699;30;20841;-69
2022/03/22 07:08:13;;;;;;;33.43;17.00;;;;;;;38.63;44.62;100948.94;4761544;30;20536;-71
2022/03/22 07:10:39;;;;;;;36.77;18.07;;;;;;;38.72;44.38;100955.25;4759669;30;20510;-69
2022/03/22 07:13:10;;;;;;;29.43;14.60;;;;;;;38.79;43.97;100958.31;4761082;30;20440;-71
2022/03/22 07:15:38;;;;;;;36.93;16.23;;;;;;;38.80;44.18;100940.97;4784173;30;20527;-68
2022/03/22 07:18:07;;;;;;;36.30;17.93;;;;;;;38.75;44.29;100941.06;4772429;30;20511;-69
2022/03/22 07:20:34;;;;;;;39.33;17.83;;;;;;;38.77;44.07;100959.75;4755415;30;20452;-71
2022/03/22 07:23:01;;;;;;;29.97;15.63;;;;;;;38.81;44.23;100968.88;4751578;30;20472;-69
2022/03/22 07:25:27;;;;;;;34.43;17.23;;;;;;;38.53;44.59;100977.09;4783609;30;20421;-71
2022/03/22 07:27:54;;;;;;;33.37;17.63;;;;;;;38.34;45.39;100947.44;4760007;30;20938;-68
2022/03/22 07:30:20;;;;;;;37.27;19.37;;;;;;;38.36;45.96;100936.31;4760633;30;20428;-69
2022/03/22 07:32:47;;;;;;;32.13;20.37;;;;;;;38.20;46.21;100945.88;4768722;30;20547;-70
2022/03/22 07:35:14;;;;;;;45.27;24.50;;;;;;;37.81;46.91;100952.66;4781344;30;20937;-69
2022/03/22 07:37:42;;;;;;;59.87;24.53;;;;;;;37.97;46.40;100942.31;4766344;30;20611;-71
2022/03/22 07:40:10;;;;;;;32.97;19.40;;;;;;;37.70;47.24;100935.03;4751650;30;20492;-72
2022/03/22 07:42:37;;;;;;;46.00;20.87;;;;;;;37.70;47.19;100924.19;4754136;30;20633;-69
2022/03/22 07:45:06;;;;;;;38.00;19.23;;;;;;;37.67;47.32;100916.66;4759877;30;20455;-71
2022/03/22 07:47:33;;;;;;;32.37;18.70;;;;;;;37.76;46.99;100923.78;4763597;30;20556;-70
2022/03/22 07:53:01;;;;;;;32.53;20.97;;;;;;;38.09;46.93;100948.00;4753548;30;20400;-68
2022/03/22 07:55:30;;;;;;;31.03;19.73;;;;;;;38.22;45.98;100938.22;4766089;30;20460;-68
2022/03/22 07:57:57;;;;;;;31.73;17.60;;;;;;;38.07;46.59;100937.50;4751460;30;20609;-68
2022/03/22 08:00:24;;;;;;;29.70;15.73;;;;;;;37.61;47.41;100948.44;4781330;29;20433;-71
2022/03/22 08:03:03;;;;;;;35.73;18.83;;;;;;;37.77;47.54;100948.94;4781135;29;21055;-71
2022/03/22 08:05:30;;;;;;;33.67;16.60;;;;;;;37.44;47.66;100942.84;4751180;30;20441;-68
2022/03/22 08:07:56;;;;;;;40.60;17.50;;;;;;;37.64;47.87;100951.38;4751288;30;20822;-68
2022/03/22 08:10:23;;;;;;;29.03;15.50;;;;;;;37.92;46.90;100949.44;4781388;29;20987;-70
2022/03/22 08:12:49;;;;;;;26.03;15.27;;;;;;;37.93;46.55;100966.50;4751646;30;20421;-70
2022/03/22 08:15:17;;;;;;;36.80;17.07;;;;;;;37.82;46.74;100957.81;4766468;30;20421;-71
2022/03/22 08:17:43;;;;;;;20.00;12.03;;;;;;;37.83;47.04;100964.81;4781178;29;20448;-70
2022/03/22 08:20:11;;;;;;;32.23;17.90;;;;;;;38.28;45.96;100961.44;4752665;30;20420;-70
2022/03/22 08:22:50;;;;;;;31.50;16.20;;;;;;;38.20;46.36;100962.13;4750658;30;20526;-68
2022/03/22 08:25:28;;;;;;;41.83;13.43;;;;;;;38.41;46.20;100968.69;4766196;30;20561;-69
2022/03/22 08:27:56;;;;;;;25.33;13.53;;;;;;;38.38;46.18;100972.03;4736733;30;20519;-72
2022/03/22 08:30:22;;;;;;;31.27;14.00;;;;;;;37.94;47.25;100981.66;4751171;30;20853;-71
2022/03/22 08:32:55;;;;;;;21.37;12.50;;;;;;;37.95;46.86;100987.88;4751824;30;20486;-71
2022/03/22 08:35:26;;;;;;;31.43;12.83;;;;;;;38.35;46.50;100984.28;4751295;30;20433;-71
2022/03/22 08:37:53;;;;;;;32.77;14.13;;;;;;;38.35;46.40;100992.41;4750697;30;20425;-71
2022/03/22 08:40:20;;;;;;;19.40;12.10;;;;;;;38.05;47.13;101007.38;4750011;30;20413;-73
2022/03/22 08:42:48;;;;;;;23.93;11.57;;;;;;;38.36;46.66;101009.47;4765163;30;20465;-71
2022/03/22 08:45:16;;;;;;;39.30;12.77;;;;;;;38.46;46.17;101022.00;4765331;30;20429;-70
2022/03/22 08:47:45;;;;;;;32.17;11.33;;;;;;;38.35;46.68;101019.50;4750919;30;20957;-70
2022/03/22 08:50:14;;;;;;;27.43;11.53;;;;;;;38.52;45.80;101034.31;4750858;30;20796;-67
2022/03/22 08:52:41;;;;;;;31.47;10.40;;;;;;;38.72;45.37;101035.78;4751025;30;20456;-68
2022/03/22 08:55:09;;;;;;;25.80;10.33;;;;;;;38.84;45.37;101038.75;4751006;30;20435;-71
2022/03/22 08:57:36;;;;;;;28.20;10.67;;;;;;;38.64;45.09;101040.81;4765612;30;20421;-68
2022/03/22 09:00:09;;;;;;;23.80;8.93;;;;;;;38.55;46.19;101047.25;4765703;30;20955;-69
2022/03/22 09:02:36;;;;;;;25.23;9.43;;;;;;;38.59;45.73;101046.34;4765326;30;20495;-69
2022/03/22 09:07:47;;;;;;;30.90;10.23;;;;;;;38.60;45.32;101039.81;4751068;30;20483;-72
2022/03/22 09:10:14;;;;;;;25.23;8.70;;;;;;;38.68;44.84;101041.00;4765536;30;20956;-71
2022/03/22 09:12:42;;;;;;;24.17;11.87;;;;;;;39.01;44.69;101041.56;4765490;30;20460;-71
2022/03/22 09:15:09;;;;;;;26.53;9.50;;;;;;;38.99;43.91;101035.66;4751954;30;20433;-71
2022/03/22 09:17:35;;;;;;;27.43;9.63;;;;;;;39.04;43.77;101040.97;4751819;30;20445;-70
2022/03/22 09:20:02;;;;;;;21.13;8.37;;;;;;;38.91;44.30;101039.91;4751796;30;20711;-72
2022/03/22 09:22:28;;;;;;;23.30;9.27;;;;;;;38.88;44.56;101039.75;4751769;30;20453;-72
2022/03/22 09:24:54;;;;;;;21.90;7.83;;;;;;;39.05;44.70;101041.78;4765337;30;20471;-70
2022/03/22 09:27:20;;;;;;;27.23;9.63;;;;;;;39.08;44.28;101041.13;4765329;30;20698;-68
2022/03/22 09:29:46;;;;;;;17.00;9.17;;;;;;;39.21;43.42;101030.22;4751612;30;20405;-72
2022/03/22 09:32:12;;;;;;;21.90;10.87;;;;;;;39.27;43.25;101017.31;4765070;30;20537;-72
2022/03/22 09:34:39;;;;;;;17.83;7.93;;;;;;;39.42;43.09;101029.72;4765049;30;20195;-72
2022/03/22 09:37:07;;;;;;;37.53;11.40;;;;;;;39.27;42.99;101013.81;4765100;30;20460;-72
2022/03/22 09:39:34;;;;;;;18.50;8.20;;;;;;;39.47;42.64;101011.38;4765069;30;20486;-70
2022/03/22 09:42:03;;;;;;;27.03;8.50;;;;;;;39.21;43.28;101018.56;4765004;30;20929;-72
2022/03/22 09:44:29;;;;;;;17.93;9.43;;;;;;;39.24;42.89;101023.41;4750313;30;20456;-72
2022/03/22 09:46:57;;;;;;;23.30;10.43;;;;;;;39.19;43.56;101023.53;4765047;30;20440;-72
2022/03/22 09:49:23;;;;;;;23.33;8.27;;;;;;;39.23;43.13;101019.09;4764704;30;20461;-72
2022/03/22 09:51:49;;;;;;;27.20;8.97;;;;;;;39.00;43.75;101031.84;4764905;30;20425;-70
2022/03/22 09:54:18;;;;;;;38.63;10.40;;;;;;;39.05;43.65;101039.06;4764973;30;20420;-72
2022/03/22 09:56:45;;;;;;;32.87;9.93;;;;;;;39.09;43.69;101043.53;4764949;30;20432;-73
2022/03/22 09:59:14;;;;;;;29.80;10.37;;;;;;;38.92;44.46;101041.53;4751337;30;20432;-69
2022/03/22 10:01:41;;;;;;;23.37;9.70;;;;;;;38.95;43.83;101045.53;4749985;30;20440;-69
2022/03/22 10:04:13;;;;;;;22.10;8.53;;;;;;;38.94;44.04;101033.88;4764726;30;20485;-69
2022/03/22 10:06:57;;;;;;;22.00;9.20;;;;;;;38.99;44.00;101035.66;4751183;30;20844;-68
2022/03/22 10:09:32;;;;;;;18.63;8.27;;;;;;;39.00;44.23;101034.56;4764891;30;20440;-68
2022/03/22 10:11:58;;;;;;;33.27;11.07;;;;;;;38.89;45.08;101030.50;4749857;30;20940;-71
2022/03/22 10:14:40;;;;;;;20.03;9.37;;;;;;;38.85;44.59;101026.78;4764828;30;20425;-71
2022/03/22 10:17:20;;;;;;;25.70;8.10;;;;;;;39.04;44.42;101023.88;4764781;30;20968;-70
2022/03/22 10:19:55;;;;;;;28.33;7.30;;;;;;;39.30;43.65;101021.34;4749792;30;20451;-71
2022/03/22 10:22:25;;;;;;;22.87;9.57;;;;;;;39.11;43.98;101026.97;4764687;30;20571;-69
2022/03/22 10:24:59;;;;;;;15.00;8.13;;;;;;;39.16;43.74;101016.78;4749700;30;20463;-68
2022/03/22 10:27:26;;;;;;;35.20;10.40;;;;;;;39.20;44.02;101020.50;4764757;30;20425;-71
2022/03/22 10:29:54;;;;;;;21.50;8.57;;;;;;;39.04;44.29;101013.84;4764704;30;20431;-71
2022/03/22 10:32:39;;;;;;;29.33;10.20;;;;;;;39.01;43.84;101014.44;4735127;30;20912;-69
2022/03/22 10:35:25;;;;;;;26.23;10.27;;;;;;;38.88;44.34;101004.47;4763400;30;20406;-73
2022/03/22 10:37:56;;;;;;;37.77;9.50;;;;;;;39.11;43.77;101005.25;4751100;30;20922;-69
2022/03/22 10:40:33;;;;;;;27.10;9.40;;;;;;;39.42;43.22;100997.94;4764364;30;20480;-71
2022/03/22 10:43:07;;;;;;;30.23;9.50;;;;;;;39.49;42.85;100994.78;4750931;30;20461;-68
2022/03/22 10:45:52;;;;;;;23.67;7.97;;;;;;;39.42;43.00;100983.56;4751047;30;20405;-69
2022/03/22 10:48:20;;;;;;;22.57;7.83;;;;;;;39.35;43.30;100969.63;4764399;30;20823;-69
2022/03/22 10:50:48;;;;;;;23.80;9.47;;;;;;;39.62;42.20;100966.72;4749760;30;20432;-71
2022/03/22 10:53:19;;;;;;;25.90;10.07;;;;;;;39.49;41.84;100970.34;4748676;30;20420;-69
2022/03/22 10:55:47;;;;;;;25.80;9.60;;;;;;;39.49;42.65;100971.13;4750512;30;20409;-68
2022/03/22 10:58:17;;;;;;;22.40;7.80;;;;;;;39.70;41.87;100965.94;4763797;30;20440;-68
2022/03/22 11:00:45;;;;;;;28.70;11.77;;;;;;;39.73;41.93;100961.81;4750735;30;20397;-71
2022/03/22 11:03:13;;;;;;;25.13;8.07;;;;;;;39.93;41.48;100960.41;4766775;30;20492;-71
2022/03/22 11:05:46;;;;;;;36.80;10.63;;;;;;;39.69;41.75;100964.34;4767441;30;20484;-71
2022/03/22 11:08:12;;;;;;;30.50;9.13;;;;;;;39.64;42.06;100961.78;4752702;30;20520;-71
2022/03/22 11:10:38;;;;;;;22.50;9.10;;;;;;;39.78;41.88;100963.56;4752670;30;20425;-71
2022/03/22 11:13:04;;;;;;;28.93;8.63;;;;;;;39.36;42.71;100961.19;4752567;30;20611;-71
2022/03/22 11:15:37;;;;;;;27.93;10.67;;;;;;;39.40;42.77;100969.50;4752644;30;20963;-72
2022/03/22 11:18:05;;;;;;;21.67;7.50;;;;;;;39.39;42.93;100959.75;4751979;30;20436;-72
2022/03/22 11:20:31;;;;;;;29.13;8.10;;;;;;;39.54;42.70;100961.25;4752273;30;20444;-71
2022/03/22 11:23:00;;;;;;;22.53;8.50;;;;;;;39.30;43.17;100958.94;4766882;30;20469;-70
2022/03/22 11:25:35;;;;;;;40.57;8.53;;;;;;;39.29;43.49;100957.31;4751448;30;20518;-71
2022/03/22 11:28:09;;;;;;;28.27;8.03;;;;;;;39.23;43.30;100960.19;4776572;30;20466;-70
2022/03/22 11:30:37;;;;;;;23.20;9.37;;;;;;;39.41;43.63;100962.94;4752369;30;20425;-69
2022/03/22 11:35:53;;;;;;;27.43;8.17;;;;;;;39.47;43.42;100948.94;4751898;30;20455;-71
2022/03/22 11:38:45;;;;;;;27.30;9.53;;;;;;;39.37;44.04;100943.00;4751744;30;20532;-71
2022/03/22 11:44:16;;;;;;;18.50;8.23;;;;;;;39.47;43.50;100939.97;4751593;30;20471;-68
2022/03/22 11:46:44;;;;;;;16.20;6.77;;;;;;;39.25;43.96;100934.66;4750413;30;20429;-73
2022/03/22 11:49:13;;;;;;;20.63;9.30;;;;;;;39.37;44.03;100934.84;4751158;30;20433;-71
2022/03/22 11:51:57;;;;;;;19.10;7.50;;;;;;;39.27;43.44;100924.28;4766258;30;20447;-71
2022/03/22 11:54:26;;;;;;;17.60;8.10;;;;;;;39.32;43.84;100929.56;4765471;30;20794;-71
2022/03/22 11:56:57;;;;;;;29.47;9.03;;;;;;;39.43;43.79;100922.75;4780951;29;20828;-73